Historyczne dane pomiarowe

Dodano dane terminowe – wersja testowa.

Dane z okresu 1951-2019

Wersja bazy: 1.34 [2019-03-16, lista zmian], aktualizacja planowana na 2019-04-15

Dane meteo z obszaru Polski uzyskane na podstawie danych udostępnionych przez Instytut Meteorologii i Gospodarki Wodnej – Państwowy Instytut Badawczy.

 

Wybierz Datę:    

       

TemperaturaWilgotnośćZachmurzenieWiatrCiśnienieWidzialnośćZjawiska
 Data    tng td wb rh cc ccl cl cm ch dir g1 g2 mslp ppp      
1994-08-03 00:00:00 19.6--- 17.8 18.489wxwxwx0wx--1019.9 979.9 0.1---wxw1
1994-08-03 01:00:00 18.8--- 18.0 18.395wxwxwx0wx--1020.4 980.2----wxw1
1994-08-03 02:00:00 19.1--- 18.5 18.796wxwxwx0wx--1020.5 980.4----wxw1
1994-08-03 03:00:00 18.4--- 18.1 18.298wxwxwx0wx--1020.6 980.4----wxw1
1994-08-03 04:00:00 18.2--- 17.7 17.997wxwxwx0wx--1020.9 980.6----wx
1994-08-03 05:00:00 18.4--- 18.1 18.298wxwxwx0wx--1021.0 980.8----wx
1994-08-03 06:00:00 19.2--- 18.6 18.896wxwxwx0wx--1021.2 981.1 2.2---wxw1
1994-08-03 07:00:00 20.4--- 18.3 19.088wxwxwx0wx--1021.5 981.5----wx
1994-08-03 08:00:00 21.4--- 19.3 20.088wxwxwx0wx--1021.6 981.7----wx
1994-08-03 09:00:00 22.4--- 17.9 19.475wxwxwx0wx--1021.8 982.1----wx
1994-08-03 10:00:00 23.6--- 18.5 20.273wxwxwx0wx--1021.5 981.9----wx
1994-08-03 11:00:00 24.8--- 17.9 20.265wxwxwx1wx--1021.0 981.6----wx
1994-08-03 12:00:00 26.4--- 18.0 20.860wxwxwx1wx--1020.4 981.2 0.0---wx
1994-08-03 13:00:00 26.8--- 17.5 20.657wxwxwx0wx--1020.0 980.9----wx
1994-08-03 14:00:00 27.8--- 16.9 20.652wxwxwxwx2wx--1019.2 980.3----wx
1994-08-03 15:00:00 28.0--- 16.1 20.248wxwxwxwx1wx--1019.1 980.2----wx
1994-08-03 16:00:00 27.4--- 15.3 19.648wxwxwxwxwx1wx--1019.1 980.1----wx
1994-08-03 17:00:00 26.6--- 15.1 19.249wxwxwxwxwx0wx--1019.4 980.3----wx
1994-08-03 18:00:00 25.6--- 14.6 18.651wxwxwxwxwx0wx--1019.6 980.4 0.0---wx
1994-08-03 19:00:00 21.0--- 13.9 16.664wxwxwxwx0wx--1021.0 981.1----wx
1994-08-03 20:00:00 18.0--- 14.4 15.880wxwxwx0wx--1022.0 981.7----wx
1994-08-03 21:00:00 16.0--- 13.7 14.686wxwx0wx--1022.8 982.2----wx
1994-08-03 22:00:00 14.8--- 13.1 13.890wxwx0wx--1023.3 982.5----wx
1994-08-03 23:00:00 13.4--- 12.0 12.691wxwx0wx--1023.8 982.8----wx

 

Źródłem pochodzenia danych jest Instytut Meteorologii i Gospodarki Wodnej – Państwowy Instytut Badawczy. Dane Instytutu Meteorologii i Gospodarki Wodnej – Państwowego Instytutu Badawczego zostały przetworzone.

Dane źródłowe można odnaleźć na stronie https://dane.imgw.pl